createdAt,value
2018-10-07T00:02:07.511Z,1.85
2018-10-07T00:04:39.570Z,1.22
2018-10-07T00:07:18.425Z,1.67
2018-10-07T00:10:02.206Z,0.93
2018-10-07T00:31:49.943Z,1.22
2018-10-07T00:34:27.887Z,0.65
2018-10-07T00:37:30.023Z,1.15
2018-10-07T00:40:11.833Z,0.60
2018-10-07T00:42:56.274Z,0.68
2018-10-07T00:45:35.312Z,0.78
2018-10-07T00:49:15.113Z,0.60
2018-10-07T00:52:26.362Z,0.50
2018-10-07T00:55:07.613Z,0.37
2018-10-07T01:01:19.623Z,0.45
2018-10-07T01:03:59.509Z,0.62
2018-10-07T01:12:49.311Z,0.70
2018-10-07T01:15:46.961Z,0.45
2018-10-07T01:21:18.507Z,0.78
2018-10-07T01:27:41.715Z,0.75
2018-10-07T01:33:54.353Z,0.62
2018-10-07T01:36:36.868Z,0.70
2018-10-07T01:39:31.799Z,0.47
2018-10-07T01:42:10.540Z,0.75
2018-10-07T01:50:27.674Z,0.68
2018-10-07T02:12:59.089Z,1.20
2018-10-07T02:26:33.468Z,0.80
2018-10-07T02:29:18.219Z,1.27
2018-10-07T02:31:54.187Z,0.65
2018-10-07T02:34:33.923Z,1.02
2018-10-07T02:37:07.868Z,0.47
2018-10-07T02:39:48.994Z,0.55
2018-10-07T02:42:23.323Z,0.55
2018-10-07T02:45:02.774Z,0.70
2018-10-07T02:47:44.571Z,0.40
2018-10-07T02:53:07.708Z,0.80
2018-10-07T02:55:40.824Z,0.17
2018-10-07T02:58:30.873Z,0.40
2018-10-07T03:01:29.309Z,0.57
2018-10-07T03:19:08.216Z,1.02
2018-10-07T03:25:41.871Z,0.78
2018-10-07T03:28:35.831Z,1.07
2018-10-07T03:31:16.860Z,0.20
2018-10-07T03:33:55.609Z,0.62
2018-10-07T03:55:08.280Z,0.93
2018-10-07T03:58:07.412Z,0.10
2018-10-07T04:14:16.242Z,0.88
2018-10-07T04:22:49.692Z,0.72
2018-10-07T04:28:15.049Z,0.65
2018-10-07T04:30:51.483Z,0.65
2018-10-07T04:34:11.046Z,0.90
2018-10-07T04:36:49.101Z,0.75
2018-10-07T04:39:33.418Z,0.80
2018-10-07T04:47:28.258Z,0.80
2018-10-07T04:50:07.476Z,1.15
2018-10-07T04:52:56.433Z,0.80
2018-10-07T04:55:34.441Z,0.90
2018-10-07T04:58:11.557Z,0.70
2018-10-07T05:03:51.401Z,0.80
2018-10-07T05:06:52.955Z,1.10
2018-10-07T05:12:22.155Z,1.60
2018-10-07T05:18:08.687Z,1.10
2018-10-07T05:20:58.528Z,1.00
2018-10-07T05:34:51.817Z,0.93
2018-10-07T05:40:25.315Z,1.30
2018-10-07T05:43:02.570Z,1.10
2018-10-07T05:48:41.052Z,1.10
2018-10-07T05:57:10.186Z,1.10
2018-10-07T06:02:32.853Z,1.15
2018-10-07T06:05:35.610Z,1.10
2018-10-07T06:13:41.876Z,1.10
2018-10-07T06:16:28.249Z,1.22
2018-10-07T06:19:07.892Z,0.98
2018-10-07T06:21:53.572Z,1.37
2018-10-07T06:27:18.973Z,1.00
2018-10-07T06:30:03.154Z,1.13
2018-10-07T06:35:37.818Z,0.83
2018-10-07T06:38:19.593Z,1.10
2018-10-07T06:44:29.213Z,1.10
2018-10-07T07:06:32.192Z,0.65
2018-10-07T07:19:59.618Z,1.10
2018-10-07T07:23:30.524Z,0.70
2018-10-07T07:26:09.483Z,0.88
2018-10-07T07:28:51.519Z,1.07
2018-10-07T07:31:34.373Z,0.62
2018-10-07T07:34:14.597Z,0.93
2018-10-07T07:36:48.765Z,0.40
2018-10-07T07:39:32.765Z,1.15
2018-10-07T07:42:26.856Z,0.55
2018-10-07T07:45:05.334Z,1.27
2018-10-07T07:47:40.369Z,0.90
2018-10-07T07:56:18.858Z,0.72
2018-10-07T08:20:01.059Z,0.57
2018-10-07T08:26:31.596Z,1.05
2018-10-07T08:29:06.758Z,0.70
2018-10-07T08:51:43.889Z,0.98
2018-10-07T08:54:26.136Z,1.50
2018-10-07T08:57:06.132Z,1.17
2018-10-07T08:59:40.362Z,0.40
2018-10-07T09:02:30.532Z,0.80
2018-10-07T09:05:19.221Z,0.80
2018-10-07T09:24:50.578Z,0.42
2018-10-07T09:30:57.155Z,0.88
2018-10-07T09:33:47.698Z,0.60
2018-10-07T09:36:32.786Z,0.80
2018-10-07T09:39:29.117Z,0.50
2018-10-07T09:42:09.412Z,0.93
2018-10-07T09:44:49.416Z,0.80
2018-10-07T09:50:18.179Z,1.07
2018-10-07T10:01:48.490Z,0.90
2018-10-07T10:56:14.422Z,1.10
2018-10-07T11:00:57.412Z,1.17
2018-10-07T11:03:45.856Z,0.82
2018-10-07T11:06:30.234Z,0.80
2018-10-07T11:09:24.748Z,1.32
2018-10-07T11:12:03.582Z,1.05
2018-10-07T11:14:56.611Z,1.00
2018-10-07T11:17:37.445Z,0.80
2018-10-07T11:21:21.448Z,0.62
2018-10-07T11:24:02.733Z,1.25
2018-10-07T11:29:18.712Z,0.80
2018-10-07T11:32:33.112Z,1.82
2018-10-07T11:35:38.830Z,0.90
2018-10-07T11:38:36.270Z,0.80
2018-10-07T11:43:44.008Z,1.00
2018-10-07T11:48:28.950Z,1.20
2018-10-07T11:51:09.366Z,0.90
2018-10-07T11:53:48.888Z,1.10
2018-10-07T11:58:58.916Z,1.05
2018-10-07T12:01:30.229Z,0.47
2018-10-07T12:04:01.460Z,0.80
2018-10-07T12:06:32.758Z,1.17
2018-10-07T12:11:47.558Z,0.70
2018-10-07T12:14:19.464Z,1.22
2018-10-07T12:16:51.550Z,1.07
2018-10-07T12:19:22.337Z,1.20
2018-10-07T12:21:53.735Z,1.12
2018-10-07T12:24:25.213Z,1.10
2018-10-07T12:26:56.337Z,0.90
2018-10-07T12:29:28.008Z,4.72
2018-10-07T12:31:59.016Z,0.78
2018-10-07T12:34:29.749Z,1.45
2018-10-07T12:37:00.324Z,0.30
2018-10-07T12:39:32.577Z,1.42
2018-10-07T12:42:03.192Z,9.93
2018-10-07T12:44:33.804Z,3.55
2018-10-07T12:47:04.663Z,0.75
2018-10-07T12:49:35.897Z,1.15
2018-10-07T12:52:06.779Z,1.55
2018-10-07T12:54:38.904Z,1.07
2018-10-07T12:57:18.592Z,1.15
2018-10-07T12:59:49.269Z,0.93
2018-10-07T13:02:20.760Z,1.55
2018-10-07T13:04:51.361Z,1.20
2018-10-07T13:10:02.115Z,1.37
2018-10-07T13:12:32.066Z,1.25
2018-10-07T13:15:02.520Z,1.50
2018-10-07T13:17:33.847Z,1.30
2018-10-07T13:20:05.991Z,0.90
2018-10-07T13:22:36.675Z,0.42
2018-10-07T13:25:06.947Z,1.70
2018-10-07T13:27:47.255Z,0.90
2018-10-07T13:30:18.573Z,0.90
2018-10-07T13:32:48.992Z,1.20
2018-10-07T13:35:21.095Z,1.10
2018-10-07T13:37:51.395Z,0.90
2018-10-07T13:40:23.139Z,1.40
2018-10-07T13:45:35.950Z,1.32
2018-10-07T13:48:07.300Z,0.80
2018-10-07T13:50:38.147Z,0.70
2018-10-07T13:55:59.559Z,1.30
2018-10-07T13:58:30.777Z,1.30
2018-10-07T14:01:02.284Z,0.93
2018-10-07T14:03:40.118Z,0.40
2018-10-07T14:06:13.482Z,1.40
2018-10-07T14:08:52.395Z,1.05
2018-10-07T14:11:24.785Z,0.80
2018-10-07T14:13:56.444Z,0.70
2018-10-07T14:16:26.658Z,0.80
2018-10-07T14:18:58.207Z,0.90
2018-10-07T14:21:28.309Z,0.37
2018-10-07T14:23:58.577Z,0.33
2018-10-07T14:26:29.947Z,0.90
2018-10-07T14:29:00.239Z,0.80
2018-10-07T14:31:30.902Z,0.95
2018-10-07T14:34:03.445Z,1.27
2018-10-07T14:36:33.937Z,5.37
2018-10-07T14:39:05.623Z,1.50
2018-10-07T14:41:36.831Z,1.05
2018-10-07T14:44:07.883Z,1.35
2018-10-07T14:46:38.766Z,1.20
2018-10-07T14:49:10.388Z,1.00
2018-10-07T14:54:24.096Z,1.65
2018-10-07T14:57:00.447Z,1.30
2018-10-07T14:59:36.039Z,1.47
2018-10-07T15:02:19.268Z,1.35
2018-10-07T15:04:53.838Z,0.98
2018-10-07T15:07:25.340Z,1.65
2018-10-07T15:09:56.171Z,1.00
2018-10-07T15:12:29.688Z,1.25
2018-10-07T15:15:03.027Z,1.35
2018-10-07T15:17:34.835Z,1.32
2018-10-07T15:20:06.702Z,1.77
2018-10-07T15:22:41.124Z,1.00
2018-10-07T15:25:12.153Z,2.47
2018-10-07T15:27:48.255Z,1.20
2018-10-07T15:30:27.132Z,1.25
2018-10-07T15:33:00.163Z,1.25
2018-10-07T15:35:31.227Z,2.12
2018-10-07T15:38:02.750Z,1.30
2018-10-07T15:40:34.796Z,4.47
2018-10-07T15:43:08.909Z,0.80
2018-10-07T15:45:41.390Z,1.25
2018-10-07T15:48:15.229Z,0.82
2018-10-07T15:50:45.399Z,1.10
2018-10-07T15:53:17.648Z,2.17
2018-10-07T15:55:49.832Z,1.60
2018-10-07T15:58:24.124Z,1.75
2018-10-07T16:00:57.091Z,1.25
2018-10-07T16:03:29.307Z,1.57
2018-10-07T16:06:01.578Z,2.00
2018-10-07T16:08:33.129Z,1.57
2018-10-07T16:11:06.848Z,1.92
2018-10-07T16:13:43.114Z,1.25
2018-10-07T16:16:17.013Z,1.52
2018-10-07T16:18:49.503Z,2.17
2018-10-07T16:21:22.335Z,1.90
2018-10-07T16:23:54.403Z,1.57
2018-10-07T16:26:29.417Z,1.60
2018-10-07T16:29:04.362Z,1.42
2018-10-07T16:34:20.168Z,1.57
2018-10-07T16:36:54.365Z,1.70
2018-10-07T16:39:28.634Z,1.70
2018-10-07T16:42:02.355Z,2.30
2018-10-07T16:44:40.066Z,2.77
2018-10-07T16:47:13.346Z,1.87
2018-10-07T16:49:45.830Z,2.37
2018-10-07T16:52:20.609Z,2.60
2018-10-07T16:54:52.383Z,2.22
2018-10-07T16:57:24.150Z,2.47
2018-10-07T16:59:56.188Z,7.53
2018-10-07T17:02:27.843Z,2.62
2018-10-07T17:04:58.607Z,3.33
2018-10-07T17:07:30.185Z,2.80
2018-10-07T17:10:08.298Z,2.77
2018-10-07T17:12:44.119Z,2.47
2018-10-07T17:18:19.917Z,3.25
2018-10-07T17:21:04.261Z,3.75
2018-10-07T17:23:52.920Z,2.58
2018-10-07T17:26:31.830Z,2.72
2018-10-07T17:29:08.747Z,4.62
2018-10-07T17:31:58.545Z,7.37
2018-10-07T17:34:42.735Z,3.22
2018-10-07T17:37:16.965Z,3.75
2018-10-07T17:40:01.240Z,5.80
2018-10-07T17:42:34.336Z,3.12
2018-10-07T17:45:08.871Z,4.55
2018-10-07T17:47:50.824Z,3.17
2018-10-07T17:50:25.995Z,3.17
2018-10-07T17:53:01.946Z,3.60
2018-10-07T17:55:54.904Z,3.12
2018-10-07T17:58:32.898Z,3.33
2018-10-07T18:01:14.615Z,4.40
2018-10-07T18:03:54.396Z,3.30
2018-10-07T18:06:26.321Z,3.20
2018-10-07T18:09:02.359Z,4.30
2018-10-07T18:11:43.664Z,3.62
2018-10-07T18:14:26.462Z,3.60
2018-10-07T18:17:46.757Z,3.70
2018-10-07T18:20:22.087Z,6.12
2018-10-07T18:23:01.745Z,4.00
2018-10-07T18:25:38.402Z,3.45
2018-10-07T18:28:27.560Z,3.67
2018-10-07T18:31:08.597Z,4.50
2018-10-07T18:33:50.600Z,3.20
2018-10-07T18:36:31.839Z,3.00
2018-10-07T18:39:14.730Z,3.25
2018-10-07T18:41:59.193Z,3.60
2018-10-07T18:44:41.257Z,3.52
2018-10-07T18:47:25.097Z,3.40
2018-10-07T18:50:15.850Z,3.27
2018-10-07T18:52:54.259Z,3.45
2018-10-07T18:55:32.061Z,3.50
2018-10-07T18:58:07.169Z,2.87
2018-10-07T19:00:39.904Z,2.98
2018-10-07T19:06:10.191Z,2.33
2018-10-07T19:08:42.483Z,3.27
2018-10-07T19:11:24.787Z,2.60
2018-10-07T19:17:08.223Z,3.20
2018-10-07T19:19:42.747Z,5.20
2018-10-07T19:22:18.971Z,3.02
2018-10-07T19:24:53.257Z,3.50
2018-10-07T19:27:26.596Z,3.20
2018-10-07T19:29:59.531Z,3.12
2018-10-07T19:32:31.834Z,3.60
2018-10-07T19:35:04.577Z,3.75
2018-10-07T19:37:40.140Z,3.42
2018-10-07T19:40:14.656Z,3.30
2018-10-07T19:42:54.896Z,4.00
2018-10-07T19:45:28.873Z,3.08
2018-10-07T19:48:08.073Z,3.92
2018-10-07T19:50:47.600Z,3.00
2018-10-07T19:53:21.966Z,3.30
2018-10-07T19:55:56.952Z,3.30
2018-10-07T19:58:31.694Z,3.35
2018-10-07T20:03:47.652Z,3.02
2018-10-07T20:06:26.350Z,3.52
2018-10-07T20:08:59.791Z,3.85
2018-10-07T20:11:34.471Z,3.95
2018-10-07T20:14:12.280Z,3.75
2018-10-07T20:16:45.305Z,3.05
2018-10-07T20:19:18.184Z,3.40
2018-10-07T20:21:52.071Z,3.80
2018-10-07T20:24:26.301Z,3.70
2018-10-07T20:27:00.102Z,3.35
2018-10-07T20:29:34.511Z,3.75
2018-10-07T20:32:08.011Z,5.95
2018-10-07T20:34:45.808Z,3.75
2018-10-07T20:37:18.411Z,3.75
2018-10-07T20:39:53.612Z,4.00
2018-10-07T20:42:28.988Z,3.52
2018-10-07T20:45:03.140Z,3.27
2018-10-07T20:47:36.758Z,3.77
2018-10-07T20:50:25.330Z,3.70
2018-10-07T20:53:00.438Z,3.02
2018-10-07T20:55:49.062Z,3.50
2018-10-07T20:58:23.900Z,3.37
2018-10-07T21:00:57.482Z,3.25
2018-10-07T21:03:30.629Z,3.65
2018-10-07T21:06:02.619Z,3.72
2018-10-07T21:08:35.061Z,2.95
2018-10-07T21:11:11.185Z,3.65
2018-10-07T21:13:48.977Z,3.50
2018-10-07T21:16:23.687Z,3.47
2018-10-07T21:18:57.172Z,3.47
2018-10-07T21:21:36.556Z,2.72
2018-10-07T21:24:08.493Z,3.17
2018-10-07T21:26:40.750Z,3.40
2018-10-07T21:29:14.541Z,3.20
2018-10-07T21:31:52.072Z,3.22
2018-10-07T21:34:34.051Z,3.05
2018-10-07T21:37:12.684Z,3.00
2018-10-07T21:39:54.390Z,2.75
2018-10-07T21:42:27.388Z,2.33
2018-10-07T21:45:04.894Z,2.35
2018-10-07T21:47:37.412Z,2.77
2018-10-07T21:50:10.243Z,2.70
2018-10-07T21:52:42.644Z,2.33
2018-10-07T21:55:15.150Z,3.27
2018-10-07T21:57:46.780Z,2.30
2018-10-07T22:00:18.814Z,2.83
2018-10-07T22:02:50.159Z,2.62
2018-10-07T22:05:21.697Z,3.25
2018-10-07T22:07:53.203Z,2.27
2018-10-07T22:10:24.920Z,4.30
2018-10-07T22:12:56.783Z,2.98
2018-10-07T22:15:27.990Z,2.87
2018-10-07T22:17:58.903Z,3.00
2018-10-07T22:20:31.547Z,2.65
2018-10-07T22:25:48.299Z,2.60
2018-10-07T22:28:20.537Z,3.35
2018-10-07T22:30:52.864Z,2.65
2018-10-07T22:33:24.820Z,2.85
2018-10-07T22:35:58.672Z,2.83
2018-10-07T22:38:31.832Z,3.20
2018-10-07T22:41:03.275Z,2.85
2018-10-07T22:43:40.265Z,2.87
2018-10-07T22:46:18.360Z,2.80
2018-10-07T22:49:37.027Z,2.75
2018-10-07T22:52:09.183Z,2.83
2018-10-07T22:54:41.251Z,2.87
2018-10-07T22:57:13.536Z,3.00
2018-10-07T22:59:45.225Z,3.05
2018-10-07T23:02:17.979Z,3.08
2018-10-07T23:04:49.800Z,3.47
2018-10-07T23:07:22.418Z,3.27
2018-10-07T23:09:55.458Z,2.80
2018-10-07T23:12:27.318Z,2.92
2018-10-07T23:14:58.205Z,3.10
2018-10-07T23:17:29.266Z,2.87
2018-10-07T23:20:01.173Z,3.40
2018-10-07T23:22:33.371Z,3.30
2018-10-07T23:25:04.226Z,2.83
2018-10-07T23:27:35.455Z,2.58
2018-10-07T23:30:08.778Z,3.12
2018-10-07T23:32:39.492Z,2.90
2018-10-07T23:35:10.511Z,2.85
2018-10-07T23:37:41.535Z,2.77
2018-10-07T23:40:12.998Z,2.70
2018-10-07T23:42:44.059Z,2.70
2018-10-07T23:45:14.076Z,2.60
2018-10-07T23:47:46.141Z,2.67
2018-10-07T23:50:16.361Z,2.80
2018-10-07T23:52:48.334Z,2.90
2018-10-07T23:55:22.880Z,3.05
2018-10-07T23:57:54.048Z,2.50
